createdAt,value
2023-01-17T14:20:39.840Z,62.59
2023-01-17T14:22:40.280Z,60.43
2023-01-17T14:25:39.876Z,59.2
2023-01-17T14:28:53.383Z,59.41
2023-01-17T14:34:40.387Z,56.79
2023-01-17T14:37:40.466Z,56.48
2023-01-17T14:40:46.860Z,56.92
2023-01-17T14:45:39.869Z,54.95
2023-01-17T14:48:39.869Z,53.47
2023-01-17T14:50:45.517Z,55.49
2023-01-17T14:52:46.604Z,54.49
2023-01-17T14:56:54.109Z,55.11
2023-01-17T15:00:53.093Z,53.26
2023-01-17T15:04:52.978Z,53.79
2023-01-17T15:07:46.408Z,53.71
2023-01-17T15:09:46.919Z,53.35
2023-01-17T15:11:47.068Z,53.06
2023-01-17T15:14:46.827Z,53.83
2023-01-17T15:16:47.124Z,53.24
2023-01-17T15:19:46.462Z,53.79
2023-01-17T15:21:46.822Z,53.4
2023-01-17T15:24:46.868Z,53.51
2023-01-17T15:26:47.118Z,52.63
2023-01-17T15:29:47.105Z,53.41
2023-01-17T15:32:39.881Z,52.66
2023-01-17T15:34:40.531Z,52.28
2023-01-17T15:37:39.904Z,52.88
2023-01-17T15:39:46.430Z,53.27
2023-01-17T15:41:46.784Z,52.58
2023-01-17T15:43:52.998Z,52.54
2023-01-17T15:46:46.401Z,53.23
2023-01-17T15:49:59.728Z,54.04
2023-01-17T15:52:46.449Z,52.42
2023-01-17T15:55:39.997Z,53.5
2023-01-17T15:57:40.363Z,53.8
2023-01-17T16:00:39.871Z,51.74
2023-01-17T16:02:46.479Z,52.5
2023-01-17T16:06:53.096Z,53.6
2023-01-17T16:09:46.943Z,51.46
2023-01-17T16:13:53.635Z,52.43
2023-01-17T16:16:47.034Z,53.04
2023-01-17T16:19:46.429Z,53.4
2023-01-17T16:22:47.384Z,52.12
2023-01-17T16:24:47.307Z,53.11
2023-01-17T16:27:39.857Z,53.47
2023-01-17T16:29:41.974Z,53.37
2023-01-17T16:33:38.910Z,53.38
2023-01-17T16:35:46.450Z,53.55
2023-01-17T16:38:40.918Z,52.15
2023-01-17T16:41:39.911Z,49.68
2023-01-17T16:43:40.601Z,49.8
2023-01-17T16:45:46.773Z,50.14
2023-01-17T16:48:40.165Z,52.93
2023-01-17T16:51:39.864Z,51.12
2023-01-17T16:54:46.468Z,54.16
2023-01-17T16:56:46.569Z,52.93
2023-01-17T16:58:53.228Z,51.12
2023-01-17T17:01:46.730Z,52.59
2023-01-17T17:03:53.544Z,51.92
2023-01-17T17:06:38.930Z,50.83
2023-01-17T17:08:46.436Z,50.57
2023-01-17T17:12:39.798Z,50.88
2023-01-17T17:17:47.074Z,51.02
2023-01-17T17:21:39.844Z,50.64
2023-01-17T17:25:38.912Z,51.58
2023-01-17T17:27:38.924Z,50.85
2023-01-17T17:29:46.822Z,52.16
2023-01-17T17:32:53.216Z,51.78
2023-01-17T17:35:46.648Z,51.1
2023-01-17T17:37:46.937Z,49.32
2023-01-17T17:40:40.743Z,51.55
2023-01-17T17:44:40.198Z,50.97
2023-01-17T17:47:53.252Z,51.23
2023-01-17T17:50:46.998Z,51.04
2023-01-17T17:53:46.857Z,51.11
2023-01-17T19:06:16.260Z,52.2
2023-01-17T19:08:37.058Z,51.35
2023-01-17T19:10:37.322Z,51.53
2023-01-17T19:16:39.636Z,51.94
2023-01-17T19:19:39.654Z,51.61
2023-01-17T19:22:45.960Z,51.24
2023-01-17T19:24:46.084Z,50.68
2023-01-17T19:28:39.449Z,51.56
2023-01-17T19:31:45.701Z,51.46
2023-01-17T19:33:45.808Z,51.57
2023-01-17T19:36:39.082Z,51.67
2023-01-17T19:39:39.053Z,52.41
2023-01-17T19:42:52.403Z,51.7
2023-01-17T19:45:45.714Z,51.36
2023-01-17T19:48:58.773Z,51.86
2023-01-17T19:51:46.152Z,52.05
2023-01-17T19:54:39.130Z,51.22
2023-01-17T19:57:39.097Z,51.64
2023-01-17T19:59:39.208Z,52.08
2023-01-17T20:02:46.258Z,51.18
2023-01-17T20:05:39.182Z,52.1
2023-01-17T20:07:39.252Z,52.02
2023-01-17T20:10:39.422Z,51.14
2023-01-17T20:12:39.538Z,51.81
2023-01-17T20:15:39.074Z,51.21
2023-01-17T20:18:39.270Z,51.77
2023-01-17T20:22:39.862Z,51.13
2023-01-17T20:24:39.962Z,52.12
2023-01-17T20:27:39.410Z,51.23
2023-01-17T20:30:39.061Z,52.17
2023-01-17T20:35:39.034Z,52.31
2023-01-17T20:37:39.048Z,52
2023-01-17T20:39:44.723Z,51.71
2023-01-17T20:41:45.626Z,52.37
2023-01-17T20:44:39.073Z,52.26
2023-01-17T20:47:39.067Z,51.7
2023-01-17T20:49:39.818Z,52.08
2023-01-17T20:52:45.637Z,52.2
2023-01-17T20:55:39.046Z,52.28
2023-01-17T20:57:39.605Z,52.4
2023-01-17T20:59:39.895Z,52.25
2023-01-17T21:02:40.131Z,52.34
2023-01-17T21:04:39.237Z,52.31
2023-01-17T21:07:39.378Z,52.39
2023-01-17T21:09:39.546Z,51.99
2023-01-17T21:11:39.879Z,51.14
2023-01-17T21:14:39.236Z,51.72
2023-01-17T21:16:39.857Z,51.49
2023-01-17T21:19:39.070Z,51.49
2023-01-17T21:21:39.072Z,51.16
2023-01-17T21:24:39.137Z,51.32
2023-01-17T21:27:39.083Z,51.41
2023-01-17T21:29:39.533Z,51.18
2023-01-17T21:32:39.299Z,50.36
2023-01-17T21:35:39.848Z,50.62
2023-01-17T21:38:39.120Z,50.33
2023-01-17T21:40:39.363Z,50.74
2023-01-17T21:43:39.063Z,50.37
2023-01-17T21:45:39.076Z,50.3
2023-01-17T21:48:39.586Z,50.11
2023-01-17T21:51:39.107Z,50.28
2023-01-17T21:53:39.086Z,50.64
2023-01-17T21:55:39.784Z,50.37
2023-01-17T21:57:39.960Z,50.38
2023-01-17T22:01:40.016Z,49.78
2023-01-17T22:03:46.353Z,50.55
2023-01-17T22:07:52.213Z,50.68
2023-01-17T22:10:45.635Z,50.98
2023-01-17T22:13:39.129Z,50.64
2023-01-17T22:15:39.884Z,50.64
2023-01-17T22:18:39.088Z,50.31
2023-01-17T22:21:39.043Z,50.09
2023-01-17T22:25:39.092Z,50.63
2023-01-17T22:27:45.754Z,50.46
2023-01-17T22:31:39.069Z,50.62
2023-01-17T22:33:39.177Z,50.78
2023-01-17T22:36:35.315Z,51.03
2023-01-17T22:38:39.284Z,50.95
2023-01-17T22:41:39.049Z,51.11
2023-01-17T22:43:39.060Z,51.28
2023-01-17T22:46:39.209Z,51.07
2023-01-17T22:48:39.818Z,50.71
2023-01-17T22:51:39.326Z,50.92
2023-01-17T22:54:39.044Z,50.78
2023-01-17T22:56:39.136Z,50.44
2023-01-17T22:59:39.114Z,50.85
2023-01-17T23:01:39.776Z,50.73
2023-01-17T23:10:39.060Z,51.08
2023-01-17T23:12:40.040Z,50.99
2023-01-17T23:15:39.165Z,51.07
2023-01-17T23:17:39.724Z,51.22
2023-01-17T23:20:39.054Z,51.67
2023-01-17T23:22:39.648Z,51.13
2023-01-17T23:25:45.674Z,50.43
2023-01-17T23:27:46.241Z,50.59
2023-01-17T23:30:39.910Z,49.97
2023-01-17T23:33:39.551Z,50.24
2023-01-17T23:36:46.201Z,51.16
2023-01-17T23:40:52.285Z,50.77
2023-01-17T23:43:45.620Z,50.92
2023-01-17T23:46:39.129Z,51.23
2023-01-17T23:50:39.045Z,51.13
2023-01-17T23:52:46.111Z,51.88
2023-01-17T23:56:39.041Z,51.61
2023-01-17T23:59:39.292Z,52.19
